createdAt,value
2023-08-29T00:01:56.032Z,3.17
2023-08-29T00:04:23.876Z,8.38
2023-08-29T00:06:51.457Z,4.85
2023-08-29T00:09:19.478Z,8.60
2023-08-29T00:11:48.018Z,6.50
2023-08-29T00:14:15.682Z,6.22
2023-08-29T00:16:43.889Z,14.30
2023-08-29T00:19:13.389Z,6.40
2023-08-29T00:21:40.924Z,5.72
2023-08-29T00:24:08.904Z,6.35
2023-08-29T00:26:36.446Z,6.20
2023-08-29T00:29:03.916Z,5.22
2023-08-29T00:31:31.710Z,4.38
2023-08-29T00:33:59.343Z,5.78
2023-08-29T00:36:26.870Z,3.90
2023-08-29T00:38:54.452Z,7.78
2023-08-29T00:41:22.685Z,7.28
2023-08-29T00:43:50.249Z,9.98
2023-08-29T00:46:18.417Z,8.02
2023-08-29T00:48:46.575Z,5.63
2023-08-29T00:51:14.237Z,5.93
2023-08-29T00:53:42.367Z,7.80
2023-08-29T00:56:11.493Z,5.15
2023-08-29T00:58:39.030Z,6.60
2023-08-29T01:01:06.632Z,9.40
2023-08-29T01:03:36.505Z,4.47
2023-08-29T01:06:05.492Z,5.95
2023-08-29T01:08:33.430Z,5.80
2023-08-29T01:11:09.208Z,7.60
2023-08-29T01:13:46.992Z,5.82
2023-08-29T01:16:15.028Z,6.47
2023-08-29T01:18:43.704Z,4.97
2023-08-29T01:21:20.962Z,5.10
2023-08-29T01:24:04.459Z,4.55
2023-08-29T01:26:33.627Z,6.30
2023-08-29T01:29:01.722Z,4.22
2023-08-29T01:31:31.240Z,5.15
2023-08-29T01:33:59.764Z,8.13
2023-08-29T01:36:49.137Z,5.93
2023-08-29T01:39:20.610Z,7.47
2023-08-29T01:41:48.581Z,6.70
2023-08-29T01:44:16.244Z,5.07
2023-08-29T01:46:44.243Z,5.43
2023-08-29T01:49:13.474Z,7.57
2023-08-29T01:51:45.002Z,7.80
2023-08-29T01:54:13.791Z,7.20
2023-08-29T01:56:41.729Z,5.30
2023-08-29T01:59:10.009Z,5.68
2023-08-29T02:01:41.027Z,6.15
2023-08-29T02:04:09.003Z,10.27
2023-08-29T02:06:36.551Z,9.88
2023-08-29T02:09:05.159Z,5.07
2023-08-29T02:11:35.755Z,4.93
2023-08-29T02:14:03.522Z,5.03
2023-08-29T02:16:32.014Z,3.50
2023-08-29T02:18:59.891Z,4.70
2023-08-29T02:21:35.211Z,5.88
2023-08-29T02:24:06.404Z,13.55
2023-08-29T02:26:33.950Z,6.60
2023-08-29T02:29:03.122Z,8.80
2023-08-29T02:31:30.974Z,7.72
2023-08-29T02:33:58.542Z,3.63
2023-08-29T02:36:27.464Z,4.65
2023-08-29T02:38:55.267Z,2.97
2023-08-29T02:41:22.916Z,2.13
2023-08-29T02:43:50.437Z,6.15
2023-08-29T02:46:20.469Z,5.35
2023-08-29T02:48:48.938Z,3.58
2023-08-29T02:51:16.413Z,3.67
2023-08-29T02:53:43.868Z,7.25
2023-08-29T02:56:11.685Z,3.72
2023-08-29T02:58:39.825Z,4.15
2023-08-29T03:01:14.009Z,7.65
2023-08-29T03:03:41.868Z,3.20
2023-08-29T03:06:09.701Z,3.45
2023-08-29T03:08:37.584Z,4.07
2023-08-29T03:11:05.820Z,6.20
2023-08-29T03:13:33.801Z,4.10
2023-08-29T03:16:01.620Z,4.05
2023-08-29T03:18:29.599Z,2.83
2023-08-29T03:20:58.391Z,3.38
2023-08-29T03:23:26.933Z,4.85
2023-08-29T03:26:03.658Z,4.30
2023-08-29T03:28:31.956Z,6.40
2023-08-29T03:31:08.192Z,4.28
2023-08-29T03:33:36.333Z,5.97
2023-08-29T03:36:07.890Z,5.32
2023-08-29T03:38:40.144Z,8.52
2023-08-29T03:41:11.139Z,7.35
2023-08-29T03:43:39.566Z,6.75
2023-08-29T03:46:08.597Z,6.97
2023-08-29T03:48:38.646Z,6.50
2023-08-29T03:56:11.098Z,6.88
2023-08-29T03:58:39.806Z,7.20
2023-08-29T04:01:08.982Z,7.47
2023-08-29T04:03:53.665Z,4.65
2023-08-29T04:06:22.418Z,4.45
2023-08-29T04:08:55.219Z,6.20
2023-08-29T04:11:22.880Z,7.50
2023-08-29T04:13:50.518Z,6.43
2023-08-29T04:16:19.036Z,5.68
2023-08-29T04:18:46.682Z,4.57
2023-08-29T04:21:14.210Z,4.75
2023-08-29T04:23:44.764Z,4.60
2023-08-29T04:26:12.594Z,4.60
2023-08-29T04:28:40.287Z,4.97
2023-08-29T04:31:12.414Z,11.48
2023-08-29T04:33:43.797Z,8.98
2023-08-29T04:36:11.506Z,9.20
2023-08-29T04:38:42.894Z,12.40
2023-08-29T04:41:10.469Z,5.15
2023-08-29T04:43:38.495Z,5.03
2023-08-29T04:46:10.636Z,4.38
2023-08-29T04:48:38.883Z,8.25
2023-08-29T04:51:06.461Z,11.05
2023-08-29T04:53:35.109Z,4.25
2023-08-29T04:56:03.655Z,5.97
2023-08-29T04:58:36.800Z,7.00
2023-08-29T05:01:05.471Z,8.52
2023-08-29T05:03:33.094Z,6.05
2023-08-29T05:06:00.804Z,6.63
2023-08-29T05:08:31.609Z,5.57
2023-08-29T05:10:59.815Z,4.57
2023-08-29T05:13:27.773Z,8.07
2023-08-29T05:15:55.751Z,6.32
2023-08-29T05:18:23.870Z,11.95
2023-08-29T05:20:54.081Z,11.38
2023-08-29T05:23:23.549Z,10.93
2023-08-29T05:25:54.807Z,7.22
2023-08-29T05:28:23.015Z,5.55
2023-08-29T05:30:50.506Z,13.15
2023-08-29T05:33:18.090Z,5.30
2023-08-29T05:35:45.718Z,8.48
2023-08-29T05:38:13.428Z,5.22
2023-08-29T05:40:41.205Z,7.35
2023-08-29T05:43:11.392Z,8.30
2023-08-29T05:45:38.927Z,9.27
2023-08-29T05:48:07.246Z,7.07
2023-08-29T05:50:36.429Z,11.13
2023-08-29T05:53:04.128Z,5.50
2023-08-29T05:55:31.655Z,8.15
2023-08-29T05:58:01.145Z,4.55
2023-08-29T06:00:31.468Z,4.88
2023-08-29T06:02:59.328Z,7.43
2023-08-29T06:05:27.771Z,7.75
2023-08-29T06:08:08.837Z,7.63
2023-08-29T06:10:41.464Z,7.40
2023-08-29T06:13:09.266Z,7.63
2023-08-29T06:15:37.073Z,6.40
2023-08-29T06:18:05.458Z,7.82
2023-08-29T06:20:37.221Z,5.78
2023-08-29T06:23:04.864Z,6.13
2023-08-29T06:25:33.107Z,5.63
2023-08-29T06:28:01.739Z,5.50
2023-08-29T06:30:29.607Z,6.80
2023-08-29T06:32:57.482Z,4.22
2023-08-29T06:35:25.275Z,6.50
2023-08-29T06:37:55.489Z,8.63
2023-08-29T06:40:23.106Z,9.57
2023-08-29T06:42:50.619Z,5.72
2023-08-29T06:45:18.496Z,6.78
2023-08-29T06:47:46.080Z,8.75
2023-08-29T06:50:13.826Z,10.00
2023-08-29T06:52:44.150Z,7.43
2023-08-29T06:55:11.829Z,14.80
2023-08-29T06:57:39.444Z,7.95
2023-08-29T07:00:07.407Z,17.85
2023-08-29T07:02:35.528Z,10.85
2023-08-29T07:05:04.692Z,12.38
2023-08-29T07:07:32.498Z,11.23
2023-08-29T07:10:00.484Z,15.05
2023-08-29T07:12:27.977Z,16.23
2023-08-29T07:14:55.700Z,9.07
2023-08-29T07:17:23.690Z,9.52
2023-08-29T07:19:54.498Z,14.93
2023-08-29T07:22:24.397Z,13.30
2023-08-29T07:27:26.980Z,10.23
2023-08-29T07:29:54.931Z,8.82
2023-08-29T07:32:22.922Z,9.38
2023-08-29T07:34:50.709Z,7.72
2023-08-29T07:37:19.826Z,6.38
2023-08-29T07:39:52.792Z,7.80
2023-08-29T07:42:20.659Z,6.75
2023-08-29T07:44:48.496Z,7.43
2023-08-29T07:47:16.921Z,11.32
2023-08-29T07:49:46.656Z,7.43
2023-08-29T07:52:14.425Z,4.88
2023-08-29T07:54:43.322Z,6.75
2023-08-29T07:57:18.712Z,3.80
2023-08-29T07:59:50.923Z,5.47
2023-08-29T08:02:18.843Z,6.03
2023-08-29T08:04:47.203Z,10.38
2023-08-29T08:07:14.881Z,8.88
2023-08-29T08:09:44.208Z,10.02
2023-08-29T08:12:11.696Z,7.00
2023-08-29T08:14:39.401Z,12.50
2023-08-29T08:17:09.987Z,8.90
2023-08-29T08:19:37.736Z,11.55
2023-08-29T08:22:05.564Z,7.05
2023-08-29T08:24:33.432Z,7.20
2023-08-29T08:27:01.219Z,6.00
2023-08-29T08:29:29.372Z,5.70
2023-08-29T08:31:57.550Z,6.68
2023-08-29T08:34:25.957Z,4.30
2023-08-29T08:36:55.289Z,3.13
2023-08-29T08:39:25.687Z,3.63
2023-08-29T08:41:54.387Z,4.43
2023-08-29T08:44:27.275Z,3.17
2023-08-29T08:47:00.112Z,3.67
2023-08-29T08:49:30.964Z,3.15
2023-08-29T08:52:08.293Z,5.32
2023-08-29T08:54:43.292Z,5.60
2023-08-29T08:57:13.088Z,5.68
2023-08-29T08:59:44.552Z,5.32
2023-08-29T09:02:19.684Z,5.93
2023-08-29T09:04:50.234Z,7.05
2023-08-29T09:07:18.208Z,6.30
2023-08-29T09:09:56.103Z,4.47
2023-08-29T09:12:23.905Z,7.88
2023-08-29T09:14:55.312Z,6.30
2023-08-29T09:17:27.201Z,3.80
2023-08-29T09:19:55.291Z,10.32
2023-08-29T09:22:28.017Z,5.85
2023-08-29T09:25:03.895Z,4.63
2023-08-29T09:27:31.899Z,4.53
2023-08-29T09:30:13.052Z,2.90
2023-08-29T09:32:45.029Z,8.07
2023-08-29T09:35:16.835Z,5.93
2023-08-29T09:37:52.385Z,6.15
2023-08-29T09:40:36.227Z,3.65
2023-08-29T09:43:07.683Z,4.22
2023-08-29T09:45:38.995Z,7.22
2023-08-29T09:48:11.094Z,6.30
2023-08-29T09:50:39.068Z,4.47
2023-08-29T09:53:07.351Z,6.10
2023-08-29T09:55:46.190Z,3.03
2023-08-29T09:58:16.448Z,6.88
2023-08-29T10:00:44.878Z,2.78
2023-08-29T10:03:13.470Z,2.63
2023-08-29T10:05:43.376Z,7.10
2023-08-29T10:08:14.012Z,3.35
2023-08-29T10:10:45.085Z,1.83
2023-08-29T10:13:13.472Z,2.95
2023-08-29T10:15:45.971Z,2.10
2023-08-29T10:18:14.335Z,3.47
2023-08-29T10:20:45.199Z,3.63
2023-08-29T10:23:15.237Z,3.70
2023-08-29T10:25:43.361Z,2.53
2023-08-29T10:28:15.179Z,5.65
2023-08-29T10:30:51.978Z,6.38
2023-08-29T10:33:20.313Z,3.00
2023-08-29T10:35:50.921Z,2.35
2023-08-29T10:38:26.503Z,2.50
2023-08-29T10:41:11.044Z,4.40
2023-08-29T10:43:39.326Z,2.10
2023-08-29T10:46:13.361Z,2.63
2023-08-29T10:48:54.001Z,2.25
2023-08-29T10:51:26.187Z,2.97
2023-08-29T10:53:58.788Z,2.63
2023-08-29T10:56:29.580Z,2.38
2023-08-29T10:58:57.653Z,3.22
2023-08-29T11:01:38.983Z,4.18
2023-08-29T11:04:23.496Z,4.55
2023-08-29T11:06:55.719Z,3.00
2023-08-29T11:09:24.490Z,4.85
2023-08-29T11:12:14.214Z,3.45
2023-08-29T11:14:54.568Z,6.07
2023-08-29T11:17:25.785Z,2.60
2023-08-29T11:19:57.093Z,5.45
2023-08-29T11:22:32.767Z,5.45
2023-08-29T11:25:00.913Z,6.15
2023-08-29T11:27:32.634Z,3.10
2023-08-29T11:30:22.322Z,3.17
2023-08-29T11:32:53.967Z,3.53
2023-08-29T11:35:23.648Z,3.97
2023-08-29T11:37:51.852Z,4.80
2023-08-29T11:43:53.479Z,2.88
2023-08-29T11:46:03.728Z,6.03
2023-08-29T11:48:32.200Z,3.30
2023-08-29T11:51:08.713Z,3.10
2023-08-29T11:53:44.071Z,3.55
2023-08-29T11:56:18.736Z,4.85
2023-08-29T11:58:47.257Z,6.20
2023-08-29T12:01:14.777Z,3.30
2023-08-29T12:03:44.961Z,2.45
2023-08-29T12:06:15.282Z,5.25
2023-08-29T12:08:49.302Z,3.83
2023-08-29T12:11:18.594Z,4.28
2023-08-29T12:14:02.216Z,4.25
2023-08-29T12:16:30.518Z,3.67
2023-08-29T12:19:09.912Z,5.70
2023-08-29T12:21:54.425Z,3.67
2023-08-29T12:24:22.839Z,2.35
2023-08-29T12:26:53.640Z,4.40
2023-08-29T12:29:21.883Z,3.05
2023-08-29T12:31:49.713Z,5.30
2023-08-29T12:34:19.871Z,5.07
2023-08-29T12:36:50.664Z,2.60
2023-08-29T12:39:18.256Z,4.30
2023-08-29T12:41:46.071Z,5.30
2023-08-29T12:44:16.725Z,4.10
2023-08-29T12:46:44.371Z,3.90
2023-08-29T12:49:11.998Z,3.42
2023-08-29T12:51:40.654Z,3.85
2023-08-29T12:54:08.726Z,4.20
2023-08-29T12:56:39.517Z,3.03
2023-08-29T12:59:09.765Z,4.15
2023-08-29T13:01:37.886Z,3.70
2023-08-29T13:04:06.206Z,44.28
2023-08-29T13:06:33.836Z,57.45
2023-08-29T13:09:01.757Z,3.95
2023-08-29T13:11:30.429Z,5.68
2023-08-29T13:13:57.945Z,6.70
2023-08-29T13:16:35.606Z,6.63
2023-08-29T13:19:04.347Z,10.13
2023-08-29T13:21:32.642Z,7.35
2023-08-29T13:24:00.714Z,3.75
2023-08-29T13:26:28.802Z,3.13
2023-08-29T13:28:56.605Z,2.67
2023-08-29T13:31:24.770Z,7.85
2023-08-29T13:33:54.634Z,5.40
2023-08-29T13:36:22.825Z,4.32
2023-08-29T13:38:51.201Z,3.67
2023-08-29T13:41:18.901Z,6.63
2023-08-29T13:43:47.008Z,4.63
2023-08-29T13:46:15.062Z,3.03
2023-08-29T13:48:44.298Z,4.43
2023-08-29T13:51:11.938Z,4.35
2023-08-29T13:53:40.553Z,4.60
2023-08-29T13:56:08.079Z,4.25
2023-08-29T13:58:36.915Z,2.90
2023-08-29T14:01:04.682Z,6.47
2023-08-29T14:03:39.252Z,5.10
2023-08-29T14:06:09.133Z,3.75
2023-08-29T14:08:36.666Z,4.20
2023-08-29T14:11:07.976Z,3.90
2023-08-29T14:13:36.375Z,5.85
2023-08-29T14:16:04.965Z,5.03
2023-08-29T14:18:33.911Z,3.45
2023-08-29T14:21:03.381Z,4.50
2023-08-29T14:23:32.025Z,4.72
2023-08-29T14:25:59.718Z,6.32
2023-08-29T14:28:27.266Z,4.70
2023-08-29T14:30:55.013Z,3.58
2023-08-29T14:33:22.739Z,4.32
2023-08-29T14:35:57.373Z,7.15
2023-08-29T14:38:25.467Z,4.80
2023-08-29T14:40:52.951Z,3.95
2023-08-29T14:43:20.539Z,4.25
2023-08-29T14:45:48.257Z,5.28
2023-08-29T14:48:16.614Z,7.10
2023-08-29T14:50:47.977Z,5.97
2023-08-29T14:53:19.370Z,3.70
2023-08-29T14:55:47.425Z,5.45
2023-08-29T14:58:18.122Z,3.55
2023-08-29T15:00:46.412Z,4.45
2023-08-29T15:03:17.387Z,3.50
2023-08-29T15:05:46.423Z,2.72
2023-08-29T15:08:14.665Z,3.72
2023-08-29T15:10:42.310Z,3.78
2023-08-29T15:13:09.816Z,4.63
2023-08-29T15:15:41.351Z,3.67
2023-08-29T15:18:09.655Z,2.88
2023-08-29T15:20:40.304Z,3.75
2023-08-29T15:23:12.134Z,2.90
2023-08-29T15:25:43.490Z,2.53
2023-08-29T15:28:12.069Z,4.60
2023-08-29T15:30:41.103Z,4.43
2023-08-29T15:33:09.825Z,6.07
2023-08-29T15:35:38.262Z,6.95
2023-08-29T15:38:06.767Z,5.60
2023-08-29T15:40:35.512Z,6.45
2023-08-29T15:43:04.015Z,8.75
2023-08-29T15:45:37.019Z,7.80
2023-08-29T15:48:06.857Z,7.95
2023-08-29T15:50:40.711Z,5.30
2023-08-29T15:53:09.301Z,6.93
2023-08-29T15:55:37.231Z,5.43
2023-08-29T15:58:08.887Z,5.43
2023-08-29T16:00:42.532Z,5.43
2023-08-29T16:03:16.630Z,4.32
2023-08-29T16:05:47.557Z,7.20
2023-08-29T16:08:20.089Z,3.92
2023-08-29T16:10:47.994Z,3.95
2023-08-29T16:13:22.240Z,4.45
2023-08-29T16:15:50.472Z,5.15
2023-08-29T16:18:17.978Z,7.07
2023-08-29T16:20:51.640Z,5.90
2023-08-29T16:23:20.131Z,5.32
2023-08-29T16:25:52.390Z,4.45
2023-08-29T16:28:25.045Z,5.30
2023-08-29T16:30:55.125Z,5.53
2023-08-29T16:33:34.249Z,4.85
2023-08-29T16:36:04.226Z,6.87
2023-08-29T16:41:02.066Z,5.45
2023-08-29T16:43:29.667Z,4.45
2023-08-29T16:45:57.632Z,3.90
2023-08-29T16:48:27.294Z,5.55
2023-08-29T16:51:00.324Z,5.47
2023-08-29T16:53:30.518Z,7.22
2023-08-29T16:55:59.667Z,4.72
2023-08-29T16:58:29.759Z,4.50
2023-08-29T17:00:57.437Z,6.47
2023-08-29T17:03:27.284Z,7.32
2023-08-29T17:05:55.112Z,8.50
2023-08-29T17:08:22.935Z,4.45
2023-08-29T17:10:50.368Z,9.93
2023-08-29T17:13:17.809Z,6.55
2023-08-29T17:15:47.183Z,4.10
2023-08-29T17:18:16.909Z,9.05
2023-08-29T17:20:44.842Z,8.30
2023-08-29T17:23:12.854Z,8.05
2023-08-29T17:25:44.114Z,6.70
2023-08-29T17:28:15.625Z,7.38
2023-08-29T17:30:45.112Z,5.43
2023-08-29T17:33:17.004Z,5.37
2023-08-29T17:35:44.944Z,6.70
2023-08-29T17:38:16.964Z,5.55
2023-08-29T17:40:45.662Z,9.90
2023-08-29T17:43:22.553Z,6.15
2023-08-29T17:45:57.272Z,7.82
2023-08-29T17:48:27.233Z,8.95
2023-08-29T17:50:59.846Z,6.00
2023-08-29T17:53:28.519Z,11.63
2023-08-29T17:55:56.456Z,9.43
2023-08-29T17:58:24.989Z,7.05
2023-08-29T18:00:53.504Z,9.40
2023-08-29T18:03:21.636Z,9.25
2023-08-29T18:06:04.167Z,19.35
2023-08-29T18:08:38.541Z,16.48
2023-08-29T18:11:06.265Z,17.85
2023-08-29T18:13:34.106Z,11.10
2023-08-29T18:16:03.811Z,14.07
2023-08-29T18:18:31.751Z,15.75
2023-08-29T18:21:13.656Z,9.65
2023-08-29T18:23:41.591Z,8.98
2023-08-29T18:26:11.154Z,10.43
2023-08-29T18:28:41.230Z,10.38
2023-08-29T18:31:12.303Z,13.10
2023-08-29T18:33:40.305Z,10.13
2023-08-29T18:36:08.152Z,14.93
2023-08-29T18:38:36.079Z,15.07
2023-08-29T18:41:04.636Z,18.25
2023-08-29T18:43:32.173Z,13.20
2023-08-29T18:46:00.575Z,11.95
2023-08-29T18:48:28.512Z,9.60
2023-08-29T18:50:55.973Z,13.32
2023-08-29T18:53:24.458Z,17.70
2023-08-29T18:55:52.131Z,10.98
2023-08-29T18:58:20.009Z,11.32
2023-08-29T19:00:56.106Z,15.45
2023-08-29T19:03:24.094Z,10.68
2023-08-29T19:05:52.179Z,12.05
2023-08-29T19:08:22.867Z,12.70
2023-08-29T19:10:51.003Z,9.88
2023-08-29T19:13:18.984Z,9.63
2023-08-29T19:15:54.904Z,11.10
2023-08-29T19:18:23.545Z,9.98
2023-08-29T19:20:51.101Z,11.23
2023-08-29T19:23:20.344Z,10.10
2023-08-29T19:25:48.059Z,8.52
2023-08-29T19:28:17.678Z,9.95
2023-08-29T19:30:45.482Z,11.70
2023-08-29T19:33:21.663Z,9.45
2023-08-29T19:35:49.601Z,12.40
2023-08-29T19:38:17.435Z,11.93
2023-08-29T19:40:45.333Z,11.95
2023-08-29T19:43:18.247Z,11.55
2023-08-29T19:45:50.296Z,12.68
2023-08-29T19:48:33.200Z,12.30
2023-08-29T19:51:01.080Z,15.53
2023-08-29T19:53:29.224Z,20.38
2023-08-29T19:55:56.897Z,17.30
2023-08-29T19:58:24.367Z,18.10
2023-08-29T20:00:52.571Z,18.70
2023-08-29T20:03:20.569Z,16.33
2023-08-29T20:05:48.373Z,22.30
2023-08-29T20:08:15.809Z,17.13
2023-08-29T20:10:46.027Z,14.98
2023-08-29T20:13:14.481Z,12.82
2023-08-29T20:15:46.209Z,17.98
2023-08-29T20:18:14.346Z,17.38
2023-08-29T20:20:47.101Z,15.65
2023-08-29T20:23:20.656Z,14.20
2023-08-29T20:25:49.791Z,13.85
2023-08-29T20:28:17.642Z,17.45
2023-08-29T20:30:47.331Z,13.73
2023-08-29T20:33:16.569Z,14.60
2023-08-29T20:35:46.002Z,12.75
2023-08-29T20:38:14.787Z,14.55
2023-08-29T20:40:43.468Z,11.60
2023-08-29T20:43:11.101Z,18.50
2023-08-29T20:45:39.076Z,10.70
2023-08-29T20:48:07.082Z,12.30
2023-08-29T20:50:34.896Z,11.48
2023-08-29T20:53:02.809Z,12.40
2023-08-29T20:55:34.919Z,12.25
2023-08-29T20:58:02.453Z,12.48
2023-08-29T21:00:30.289Z,12.77
2023-08-29T21:02:58.088Z,17.73
2023-08-29T21:05:25.959Z,15.93
2023-08-29T21:07:54.028Z,14.15
2023-08-29T21:10:21.721Z,11.57
2023-08-29T21:12:49.639Z,14.35
2023-08-29T21:15:25.673Z,12.38
2023-08-29T21:17:53.192Z,12.65
2023-08-29T21:20:24.685Z,14.82
2023-08-29T21:22:54.955Z,12.38
2023-08-29T21:25:25.186Z,14.35
2023-08-29T21:27:52.927Z,14.00
2023-08-29T21:30:20.666Z,10.27
2023-08-29T21:32:48.881Z,15.00
2023-08-29T21:35:21.878Z,14.75
2023-08-29T21:37:49.643Z,15.65
2023-08-29T21:40:20.931Z,11.85
2023-08-29T21:42:49.068Z,13.70
2023-08-29T21:45:18.820Z,16.92
2023-08-29T21:47:52.799Z,12.05
2023-08-29T21:50:27.096Z,9.50
2023-08-29T21:52:54.770Z,15.55
2023-08-29T21:55:22.528Z,16.00
2023-08-29T21:57:53.327Z,12.63
2023-08-29T22:00:21.852Z,12.57
2023-08-29T22:02:57.168Z,15.60
2023-08-29T22:05:25.366Z,13.95
2023-08-29T22:07:53.162Z,15.43
2023-08-29T22:10:20.970Z,12.48
2023-08-29T22:12:48.593Z,10.77
2023-08-29T22:15:16.084Z,8.40
2023-08-29T22:17:44.815Z,12.55
2023-08-29T22:20:13.309Z,8.90
2023-08-29T22:22:41.764Z,11.38
2023-08-29T22:25:09.946Z,12.10
2023-08-29T22:27:38.584Z,12.07
2023-08-29T22:30:07.232Z,11.95
2023-08-29T22:32:35.278Z,11.40
2023-08-29T22:35:14.283Z,12.77
2023-08-29T22:37:42.397Z,9.57
2023-08-29T22:40:13.563Z,16.05
2023-08-29T22:42:42.856Z,9.88
2023-08-29T22:45:16.126Z,10.68
2023-08-29T22:47:44.054Z,13.23
2023-08-29T22:50:12.412Z,11.02
2023-08-29T22:52:40.417Z,13.38
2023-08-29T22:55:08.499Z,11.68
2023-08-29T22:57:43.060Z,10.25
2023-08-29T23:00:14.177Z,14.90
2023-08-29T23:02:43.007Z,11.80
2023-08-29T23:05:11.309Z,10.90
2023-08-29T23:07:39.115Z,14.63
2023-08-29T23:10:06.922Z,11.05
2023-08-29T23:12:36.509Z,10.20
2023-08-29T23:15:05.889Z,14.43
2023-08-29T23:17:34.958Z,15.02
2023-08-29T23:20:02.609Z,15.23
2023-08-29T23:22:30.678Z,17.08
2023-08-29T23:24:58.985Z,14.63
2023-08-29T23:27:27.675Z,14.25
2023-08-29T23:29:59.930Z,12.93
2023-08-29T23:32:27.700Z,10.88
2023-08-29T23:34:59.203Z,12.48
2023-08-29T23:37:27.212Z,15.02
2023-08-29T23:40:00.821Z,12.68
2023-08-29T23:42:28.530Z,15.73
2023-08-29T23:44:56.595Z,13.00
2023-08-29T23:47:24.277Z,13.07
2023-08-29T23:49:52.299Z,12.55
2023-08-29T23:52:19.960Z,15.30
2023-08-29T23:54:47.813Z,18.30
2023-08-29T23:57:16.278Z,17.58
2023-08-29T23:59:43.781Z,15.63
